MAS2716 WMKK-WBGS
Flight info
| Callsign | MAS2716 |
|---|---|
| Flight time | 1h 41m |
| Altitude | 37000 |
| Route | KIMAT1A KIMAT Y344 VPK M761 AGOBA W459 AGPOP ISGOT1B |
| Aircraft | B738/M-SDE2E3FGHIRWXY/LB1 |
Departure
| Time | 2026-05-06 00:24 |
|---|---|
| Airport | Kuala Lumpur International Airport (WMKK) |
Arrival
| Time | 2026-05-06 02:05 |
|---|---|
| Airport | Sibu Airport (WBGS) |
| Time | Latitude | Longitude | Altitude | Speed | Heading |
|---|---|---|---|---|---|
| 2026-05-06 00:16 | 2.75524 | 101.70740 | 69 ft | 0 kts | 56° |
| 2026-05-06 00:18 | 2.75526 | 101.70743 | 69 ft | 1 kts | 57° |
| 2026-05-06 00:18 | 2.75534 | 101.70755 | 66 ft | 3 kts | 59° |
| 2026-05-06 00:19 | 2.75547 | 101.70781 | 67 ft | 5 kts | 65° |
| 2026-05-06 00:19 | 2.75571 | 101.70811 | 72 ft | 6 kts | 57° |
| 2026-05-06 00:19 | 2.75598 | 101.70851 | 67 ft | 8 kts | 56° |
| 2026-05-06 00:19 | 2.75631 | 101.70902 | 71 ft | 9 kts | 57° |
| 2026-05-06 00:20 | 2.75670 | 101.70959 | 72 ft | 11 kts | 56° |
| 2026-05-06 00:20 | 2.75711 | 101.71025 | 72 ft | 12 kts | 71° |
| 2026-05-06 00:20 | 2.75675 | 101.71090 | 66 ft | 12 kts | 147° |
| 2026-05-06 00:20 | 2.75603 | 101.71138 | 72 ft | 13 kts | 146° |
| 2026-05-06 00:21 | 2.75524 | 101.71191 | 69 ft | 14 kts | 147° |
| 2026-05-06 00:21 | 2.75445 | 101.71243 | 64 ft | 10 kts | 146° |
| 2026-05-06 00:21 | 2.75399 | 101.71282 | 72 ft | 9 kts | 115° |
| 2026-05-06 00:21 | 2.75424 | 101.71343 | 70 ft | 10 kts | 56° |
| 2026-05-06 00:22 | 2.75466 | 101.71405 | 71 ft | 12 kts | 56° |
| 2026-05-06 00:22 | 2.75516 | 101.71478 | 66 ft | 13 kts | 55° |
| 2026-05-06 00:22 | 2.75567 | 101.71552 | 70 ft | 13 kts | 56° |
| 2026-05-06 00:22 | 2.75614 | 101.71624 | 65 ft | 12 kts | 61° |
| 2026-05-06 00:23 | 2.75657 | 101.71653 | 74 ft | 8 kts | 350° |
| 2026-05-06 00:23 | 2.75675 | 101.71645 | 74 ft | 0 kts | 328° |
| 2026-05-06 00:23 | 2.75679 | 101.71642 | 67 ft | 10 kts | 328° |
| 2026-05-06 00:23 | 2.75950 | 101.71461 | 68 ft | 84 kts | 326° |
| 2026-05-06 00:24 | 2.76617 | 101.71013 | 67 ft | 144 kts | 326° |
| 2026-05-06 00:24 | 2.77465 | 101.70446 | 320 ft | 167 kts | 326° |
| 2026-05-06 00:24 | 2.78412 | 101.69807 | 1155 ft | 164 kts | 325° |
| 2026-05-06 00:24 | 2.79395 | 101.69150 | 1649 ft | 182 kts | 327° |
| 2026-05-06 00:25 | 2.80656 | 101.68627 | 1906 ft | 209 kts | 341° |
| 2026-05-06 00:25 | 2.82099 | 101.68138 | 2112 ft | 229 kts | 340° |
| 2026-05-06 00:25 | 2.83642 | 101.67593 | 2462 ft | 243 kts | 340° |
| 2026-05-06 00:25 | 2.85295 | 101.67001 | 2802 ft | 259 kts | 340° |
| 2026-05-06 00:26 | 2.86425 | 101.66596 | 3264 ft | 262 kts | 340° |
| 2026-05-06 00:26 | 2.88700 | 101.65774 | 4360 ft | 263 kts | 340° |
| 2026-05-06 00:26 | 2.89786 | 101.65385 | 4848 ft | 265 kts | 341° |
| 2026-05-06 00:26 | 2.92248 | 101.65302 | 5410 ft | 276 kts | 21° |
| 2026-05-06 00:27 | 2.93953 | 101.66195 | 6161 ft | 278 kts | 31° |
| 2026-05-06 00:27 | 2.95630 | 101.67181 | 6832 ft | 283 kts | 31° |
| 2026-05-06 00:27 | 2.97336 | 101.68193 | 7551 ft | 286 kts | 31° |
| 2026-05-06 00:27 | 2.98476 | 101.68867 | 8041 ft | 288 kts | 31° |
| 2026-05-06 00:28 | 3.00211 | 101.69889 | 8790 ft | 292 kts | 31° |
| 2026-05-06 00:28 | 3.02558 | 101.71263 | 9785 ft | 298 kts | 31° |
| 2026-05-06 00:28 | 3.04368 | 101.72320 | 10293 ft | 311 kts | 31° |
| 2026-05-06 00:28 | 3.06309 | 101.73452 | 10466 ft | 334 kts | 31° |
| 2026-05-06 00:29 | 3.07681 | 101.74250 | 10773 ft | 341 kts | 31° |
| 2026-05-06 00:29 | 3.09724 | 101.75437 | 11413 ft | 345 kts | 31° |
| 2026-05-06 00:29 | 3.11800 | 101.76642 | 12190 ft | 346 kts | 32° |
| 2026-05-06 00:29 | 3.13885 | 101.77854 | 12954 ft | 347 kts | 32° |
| 2026-05-06 00:30 | 3.15977 | 101.79082 | 13687 ft | 350 kts | 34° |
| 2026-05-06 00:30 | 3.17762 | 101.80715 | 14303 ft | 350 kts | 54° |
| 2026-05-06 00:30 | 3.19144 | 101.82734 | 14963 ft | 353 kts | 58° |
| 2026-05-06 00:30 | 3.20502 | 101.84803 | 15572 ft | 358 kts | 58° |
| 2026-05-06 00:31 | 3.21881 | 101.86888 | 16212 ft | 362 kts | 57° |
| 2026-05-06 00:31 | 3.23292 | 101.88989 | 16849 ft | 365 kts | 57° |
| 2026-05-06 00:31 | 3.24703 | 101.91076 | 17461 ft | 369 kts | 57° |
| 2026-05-06 00:31 | 3.25850 | 101.93376 | 18025 ft | 372 kts | 76° |
| 2026-05-06 00:32 | 3.26151 | 101.95946 | 18584 ft | 374 kts | 93° |
| 2026-05-06 00:32 | 3.25699 | 101.98515 | 19127 ft | 377 kts | 103° |
| 2026-05-06 00:32 | 3.25042 | 102.01062 | 19650 ft | 380 kts | 104° |
| 2026-05-06 00:32 | 3.24348 | 102.03627 | 20143 ft | 384 kts | 105° |
| 2026-05-06 00:33 | 3.23650 | 102.06216 | 20641 ft | 388 kts | 104° |
| 2026-05-06 00:33 | 3.22953 | 102.08837 | 21141 ft | 391 kts | 104° |
| 2026-05-06 00:33 | 3.22263 | 102.11477 | 21646 ft | 394 kts | 104° |
| 2026-05-06 00:33 | 3.21574 | 102.14141 | 22117 ft | 397 kts | 104° |
| 2026-05-06 00:34 | 3.20893 | 102.16791 | 22574 ft | 401 kts | 104° |
| 2026-05-06 00:34 | 3.20199 | 102.19498 | 23032 ft | 404 kts | 104° |
| 2026-05-06 00:34 | 3.19499 | 102.22231 | 23473 ft | 407 kts | 104° |
| 2026-05-06 00:34 | 3.18793 | 102.24986 | 23838 ft | 410 kts | 104° |
| 2026-05-06 00:35 | 3.18084 | 102.27755 | 24200 ft | 412 kts | 104° |
| 2026-05-06 00:35 | 3.17368 | 102.30544 | 24577 ft | 415 kts | 104° |
| 2026-05-06 00:35 | 3.16655 | 102.33351 | 24938 ft | 418 kts | 102° |
| 2026-05-06 00:35 | 3.16410 | 102.36242 | 25248 ft | 421 kts | 84° |
| 2026-05-06 00:36 | 3.16902 | 102.39087 | 25631 ft | 422 kts | 78° |
| 2026-05-06 00:36 | 3.17528 | 102.41972 | 25980 ft | 425 kts | 77° |
| 2026-05-06 00:36 | 3.18179 | 102.44863 | 26315 ft | 428 kts | 77° |
| 2026-05-06 00:36 | 3.18834 | 102.47778 | 26651 ft | 430 kts | 78° |
| 2026-05-06 00:37 | 3.19481 | 102.50707 | 26977 ft | 433 kts | 78° |
| 2026-05-06 00:37 | 3.20123 | 102.53663 | 27306 ft | 436 kts | 78° |
| 2026-05-06 00:37 | 3.20760 | 102.56634 | 27628 ft | 438 kts | 78° |
| 2026-05-06 00:37 | 3.21395 | 102.59624 | 27940 ft | 441 kts | 78° |
| 2026-05-06 00:38 | 3.22022 | 102.62586 | 28243 ft | 443 kts | 78° |
| 2026-05-06 00:38 | 3.22661 | 102.65613 | 28539 ft | 446 kts | 78° |
| 2026-05-06 00:38 | 3.23303 | 102.68651 | 28835 ft | 448 kts | 78° |
| 2026-05-06 00:38 | 3.23950 | 102.71715 | 29128 ft | 450 kts | 78° |
| 2026-05-06 00:39 | 3.24599 | 102.74787 | 29415 ft | 453 kts | 78° |
| 2026-05-06 00:39 | 3.25252 | 102.77879 | 29702 ft | 455 kts | 78° |
| 2026-05-06 00:39 | 3.25907 | 102.80979 | 29985 ft | 457 kts | 78° |
| 2026-05-06 00:39 | 3.26557 | 102.84054 | 30208 ft | 459 kts | 78° |
| 2026-05-06 00:40 | 3.27218 | 102.87182 | 30431 ft | 461 kts | 78° |
| 2026-05-06 00:40 | 3.27882 | 102.90325 | 30657 ft | 463 kts | 78° |
| 2026-05-06 00:40 | 3.28547 | 102.93475 | 30876 ft | 465 kts | 78° |
| 2026-05-06 00:40 | 3.29216 | 102.96643 | 31140 ft | 465 kts | 78° |
| 2026-05-06 00:41 | 3.29884 | 102.99807 | 31466 ft | 464 kts | 78° |
| 2026-05-06 00:41 | 3.30551 | 103.02966 | 31810 ft | 463 kts | 78° |
| 2026-05-06 00:41 | 3.31215 | 103.06114 | 32122 ft | 463 kts | 78° |
| 2026-05-06 00:41 | 3.31881 | 103.09270 | 32412 ft | 463 kts | 78° |
| 2026-05-06 00:42 | 3.32547 | 103.12427 | 32727 ft | 463 kts | 78° |
| 2026-05-06 00:42 | 3.33203 | 103.15537 | 33080 ft | 462 kts | 78° |
| 2026-05-06 00:42 | 3.33863 | 103.18669 | 33466 ft | 460 kts | 78° |
| 2026-05-06 00:42 | 3.34526 | 103.21811 | 33771 ft | 461 kts | 78° |
| 2026-05-06 00:43 | 3.35186 | 103.24944 | 34086 ft | 460 kts | 78° |
| 2026-05-06 00:43 | 3.35845 | 103.28069 | 34462 ft | 457 kts | 78° |
| 2026-05-06 00:43 | 3.36497 | 103.31165 | 34883 ft | 453 kts | 78° |
| 2026-05-06 00:43 | 3.37144 | 103.34235 | 35239 ft | 451 kts | 78° |
| 2026-05-06 00:44 | 3.37790 | 103.37301 | 35548 ft | 450 kts | 78° |
| 2026-05-06 00:44 | 3.38231 | 103.40391 | 35846 ft | 449 kts | 88° |
| 2026-05-06 00:44 | 3.38166 | 103.43510 | 36182 ft | 447 kts | 96° |
| 2026-05-06 00:44 | 3.37662 | 103.46521 | 36528 ft | 444 kts | 104° |
| 2026-05-06 00:45 | 3.36835 | 103.49494 | 36837 ft | 443 kts | 105° |
| 2026-05-06 00:45 | 3.35075 | 103.55463 | 36855 ft | 450 kts | 106° |
| 2026-05-06 00:46 | 3.33328 | 103.61453 | 36849 ft | 446 kts | 106° |
| 2026-05-06 00:46 | 3.31631 | 103.67399 | 36860 ft | 443 kts | 105° |
| 2026-05-06 00:47 | 3.29963 | 103.73291 | 36859 ft | 443 kts | 105° |
| 2026-05-06 00:47 | 3.28287 | 103.79212 | 36871 ft | 443 kts | 105° |
| 2026-05-06 00:48 | 3.26609 | 103.85134 | 36872 ft | 443 kts | 105° |
| 2026-05-06 00:48 | 3.24928 | 103.91067 | 36870 ft | 443 kts | 105° |
| 2026-05-06 00:49 | 3.23256 | 103.96962 | 36874 ft | 443 kts | 105° |
| 2026-05-06 00:49 | 3.21564 | 104.02928 | 36882 ft | 443 kts | 105° |
| 2026-05-06 00:50 | 3.19879 | 104.08870 | 36877 ft | 444 kts | 105° |
| 2026-05-06 00:50 | 3.18205 | 104.14770 | 36876 ft | 444 kts | 105° |
| 2026-05-06 00:51 | 3.16554 | 104.20720 | 36877 ft | 444 kts | 105° |
| 2026-05-06 00:51 | 3.14974 | 104.26588 | 36877 ft | 444 kts | 104° |
| 2026-05-06 00:52 | 3.13360 | 104.32544 | 36878 ft | 444 kts | 105° |
| 2026-05-06 00:52 | 3.11728 | 104.38502 | 36875 ft | 444 kts | 105° |
| 2026-05-06 00:53 | 3.10084 | 104.44465 | 36876 ft | 444 kts | 105° |
| 2026-05-06 00:53 | 3.08442 | 104.50428 | 36869 ft | 445 kts | 105° |
| 2026-05-06 00:54 | 3.06802 | 104.56388 | 36879 ft | 444 kts | 105° |
| 2026-05-06 00:54 | 3.05172 | 104.62313 | 36876 ft | 444 kts | 105° |
| 2026-05-06 00:55 | 3.03533 | 104.68266 | 36874 ft | 444 kts | 105° |
| 2026-05-06 00:55 | 3.01891 | 104.74218 | 36874 ft | 444 kts | 105° |
| 2026-05-06 00:56 | 3.00248 | 104.80170 | 36873 ft | 444 kts | 105° |
| 2026-05-06 00:56 | 2.98617 | 104.86079 | 36880 ft | 443 kts | 105° |
| 2026-05-06 00:57 | 2.96976 | 104.92024 | 36883 ft | 443 kts | 105° |
| 2026-05-06 00:57 | 2.95335 | 104.97967 | 36878 ft | 443 kts | 105° |
| 2026-05-06 00:58 | 2.93692 | 105.03918 | 36871 ft | 443 kts | 105° |
| 2026-05-06 00:58 | 2.92054 | 105.09852 | 36880 ft | 443 kts | 105° |
| 2026-05-06 00:59 | 2.90423 | 105.15758 | 36880 ft | 443 kts | 105° |
| 2026-05-06 00:59 | 2.88771 | 105.21705 | 36878 ft | 444 kts | 105° |
| 2026-05-06 01:00 | 2.87108 | 105.27644 | 36877 ft | 444 kts | 105° |
| 2026-05-06 01:00 | 2.85468 | 105.33593 | 36886 ft | 444 kts | 104° |
| 2026-05-06 01:01 | 2.83839 | 105.39511 | 36886 ft | 444 kts | 105° |
| 2026-05-06 01:01 | 2.82197 | 105.45460 | 36881 ft | 444 kts | 105° |
| 2026-05-06 01:02 | 2.80552 | 105.51419 | 36880 ft | 444 kts | 105° |
| 2026-05-06 01:02 | 2.78904 | 105.57382 | 36888 ft | 444 kts | 105° |
| 2026-05-06 01:03 | 2.77260 | 105.63332 | 36889 ft | 444 kts | 105° |
| 2026-05-06 01:03 | 2.75624 | 105.69256 | 36887 ft | 444 kts | 104° |
| 2026-05-06 01:04 | 2.73979 | 105.75208 | 36887 ft | 444 kts | 104° |
| 2026-05-06 01:04 | 2.72335 | 105.81166 | 36884 ft | 444 kts | 104° |
| 2026-05-06 01:05 | 2.70692 | 105.87123 | 36882 ft | 444 kts | 104° |
| 2026-05-06 01:05 | 2.69051 | 105.93072 | 36875 ft | 444 kts | 104° |
| 2026-05-06 01:06 | 2.67421 | 105.98979 | 36878 ft | 444 kts | 104° |
| 2026-05-06 01:06 | 2.65778 | 106.04931 | 36884 ft | 443 kts | 104° |
| 2026-05-06 01:07 | 2.62575 | 106.16533 | 36883 ft | 443 kts | 104° |
| 2026-05-06 01:08 | 2.60933 | 106.22477 | 36888 ft | 443 kts | 104° |
| 2026-05-06 01:08 | 2.59291 | 106.28421 | 36892 ft | 443 kts | 104° |
| 2026-05-06 01:09 | 2.57385 | 106.35325 | 36884 ft | 443 kts | 105° |
| 2026-05-06 01:09 | 2.56020 | 106.40261 | 36887 ft | 443 kts | 105° |
| 2026-05-06 01:10 | 2.54383 | 106.46201 | 36887 ft | 443 kts | 104° |
| 2026-05-06 01:10 | 2.52748 | 106.52145 | 36881 ft | 443 kts | 104° |
| 2026-05-06 01:11 | 2.51124 | 106.58036 | 36882 ft | 442 kts | 105° |
| 2026-05-06 01:11 | 2.49487 | 106.63964 | 36885 ft | 442 kts | 105° |
| 2026-05-06 01:12 | 2.47849 | 106.69894 | 36889 ft | 442 kts | 104° |
| 2026-05-06 01:12 | 2.46213 | 106.75821 | 36888 ft | 442 kts | 105° |
| 2026-05-06 01:13 | 2.44588 | 106.81703 | 36884 ft | 442 kts | 105° |
| 2026-05-06 01:13 | 2.42953 | 106.87624 | 36890 ft | 442 kts | 105° |
| 2026-05-06 01:14 | 2.40500 | 106.96506 | 36882 ft | 442 kts | 105° |
| 2026-05-06 01:14 | 2.38864 | 107.02428 | 36888 ft | 442 kts | 105° |
| 2026-05-06 01:15 | 2.37229 | 107.08344 | 36886 ft | 442 kts | 105° |
| 2026-05-06 01:15 | 2.35601 | 107.14229 | 36883 ft | 442 kts | 105° |
| 2026-05-06 01:16 | 2.33963 | 107.20141 | 36889 ft | 441 kts | 105° |
| 2026-05-06 01:16 | 2.32325 | 107.26055 | 36882 ft | 441 kts | 105° |
| 2026-05-06 01:17 | 2.30686 | 107.31971 | 36890 ft | 441 kts | 105° |
| 2026-05-06 01:17 | 2.29049 | 107.37881 | 36884 ft | 441 kts | 105° |
| 2026-05-06 01:18 | 2.27421 | 107.43756 | 36886 ft | 441 kts | 105° |
| 2026-05-06 01:18 | 2.25785 | 107.49663 | 36888 ft | 441 kts | 105° |
| 2026-05-06 01:19 | 2.24150 | 107.55561 | 36892 ft | 440 kts | 105° |
| 2026-05-06 01:19 | 2.22515 | 107.61460 | 36888 ft | 440 kts | 105° |
| 2026-05-06 01:20 | 2.20889 | 107.67324 | 36885 ft | 440 kts | 105° |
| 2026-05-06 01:20 | 2.19255 | 107.73218 | 36893 ft | 440 kts | 105° |
| 2026-05-06 01:21 | 2.17621 | 107.79112 | 36884 ft | 440 kts | 105° |
| 2026-05-06 01:21 | 2.15989 | 107.84997 | 36887 ft | 440 kts | 105° |
| 2026-05-06 01:22 | 2.14354 | 107.90850 | 36881 ft | 440 kts | 105° |
| 2026-05-06 01:22 | 2.12708 | 107.96728 | 36890 ft | 439 kts | 105° |
| 2026-05-06 01:23 | 2.11060 | 108.02615 | 36890 ft | 440 kts | 105° |
| 2026-05-06 01:23 | 2.09413 | 108.08503 | 36891 ft | 440 kts | 105° |
| 2026-05-06 01:24 | 2.07779 | 108.14344 | 36892 ft | 440 kts | 105° |
| 2026-05-06 01:24 | 2.06131 | 108.20234 | 36889 ft | 440 kts | 105° |
| 2026-05-06 01:25 | 2.04485 | 108.26116 | 36887 ft | 440 kts | 105° |
| 2026-05-06 01:25 | 2.02837 | 108.32004 | 36882 ft | 440 kts | 105° |
| 2026-05-06 01:26 | 2.01190 | 108.37888 | 36886 ft | 440 kts | 105° |
| 2026-05-06 01:26 | 1.99553 | 108.43737 | 36884 ft | 440 kts | 105° |
| 2026-05-06 01:27 | 1.98100 | 108.49667 | 36883 ft | 439 kts | 96° |
| 2026-05-06 01:27 | 1.98145 | 108.55744 | 36905 ft | 438 kts | 85° |
| 2026-05-06 01:28 | 1.98684 | 108.61806 | 36890 ft | 438 kts | 85° |
| 2026-05-06 01:28 | 1.99208 | 108.67834 | 36888 ft | 438 kts | 85° |
| 2026-05-06 01:29 | 1.99705 | 108.73905 | 36889 ft | 438 kts | 85° |
| 2026-05-06 01:29 | 2.00189 | 108.79978 | 36897 ft | 438 kts | 85° |
| 2026-05-06 01:30 | 2.00670 | 108.86047 | 36888 ft | 438 kts | 85° |
| 2026-05-06 01:30 | 2.01148 | 108.92074 | 36897 ft | 438 kts | 85° |
| 2026-05-06 01:31 | 2.01629 | 108.98143 | 36889 ft | 438 kts | 85° |
| 2026-05-06 01:31 | 2.02110 | 109.04204 | 36890 ft | 437 kts | 85° |
| 2026-05-06 01:32 | 2.02591 | 109.10263 | 36896 ft | 437 kts | 85° |
| 2026-05-06 01:32 | 2.03068 | 109.16284 | 36894 ft | 437 kts | 85° |
| 2026-05-06 01:33 | 2.03548 | 109.22334 | 36894 ft | 437 kts | 85° |
| 2026-05-06 01:33 | 2.04027 | 109.28393 | 36894 ft | 437 kts | 85° |
| 2026-05-06 01:34 | 2.04506 | 109.34442 | 36897 ft | 437 kts | 85° |
| 2026-05-06 01:34 | 2.04982 | 109.40459 | 36894 ft | 437 kts | 85° |
| 2026-05-06 01:35 | 2.05461 | 109.46508 | 36890 ft | 437 kts | 85° |
| 2026-05-06 01:35 | 2.05939 | 109.52556 | 36897 ft | 436 kts | 85° |
| 2026-05-06 01:36 | 2.06416 | 109.58600 | 36896 ft | 436 kts | 85° |
| 2026-05-06 01:36 | 2.06856 | 109.64669 | 36500 ft | 441 kts | 86° |
| 2026-05-06 01:37 | 2.07062 | 109.67658 | 36165 ft | 435 kts | 86° |
| 2026-05-06 01:37 | 2.07268 | 109.70665 | 35742 ft | 431 kts | 86° |
| 2026-05-06 01:37 | 2.07472 | 109.73637 | 35323 ft | 428 kts | 86° |
| 2026-05-06 01:37 | 2.07677 | 109.76598 | 34906 ft | 424 kts | 86° |
| 2026-05-06 01:38 | 2.07880 | 109.79529 | 34476 ft | 422 kts | 86° |
| 2026-05-06 01:38 | 2.08084 | 109.82450 | 34063 ft | 420 kts | 86° |
| 2026-05-06 01:38 | 2.08286 | 109.85351 | 33608 ft | 418 kts | 86° |
| 2026-05-06 01:38 | 2.08488 | 109.88236 | 33176 ft | 414 kts | 86° |
| 2026-05-06 01:39 | 2.08685 | 109.91063 | 32758 ft | 411 kts | 86° |
| 2026-05-06 01:39 | 2.08883 | 109.93902 | 32350 ft | 408 kts | 86° |
| 2026-05-06 01:39 | 2.09080 | 109.96723 | 31949 ft | 405 kts | 86° |
| 2026-05-06 01:39 | 2.09275 | 109.99517 | 31555 ft | 402 kts | 86° |
| 2026-05-06 01:40 | 2.09469 | 110.02298 | 31163 ft | 400 kts | 86° |
| 2026-05-06 01:40 | 2.09662 | 110.05060 | 30775 ft | 397 kts | 86° |
| 2026-05-06 01:40 | 2.09854 | 110.07807 | 30386 ft | 395 kts | 86° |
| 2026-05-06 01:40 | 2.10044 | 110.10542 | 29991 ft | 393 kts | 86° |
| 2026-05-06 01:41 | 2.10234 | 110.13258 | 29543 ft | 391 kts | 86° |
| 2026-05-06 01:41 | 2.10422 | 110.15958 | 29114 ft | 388 kts | 86° |
| 2026-05-06 01:41 | 2.10606 | 110.18594 | 28706 ft | 385 kts | 86° |
| 2026-05-06 01:41 | 2.10791 | 110.21249 | 28302 ft | 381 kts | 86° |
| 2026-05-06 01:42 | 2.10974 | 110.23884 | 27907 ft | 378 kts | 86° |
| 2026-05-06 01:42 | 2.11178 | 110.26819 | 27467 ft | 375 kts | 86° |
| 2026-05-06 01:42 | 2.11358 | 110.29407 | 27071 ft | 373 kts | 86° |
| 2026-05-06 01:42 | 2.11538 | 110.31984 | 26699 ft | 371 kts | 86° |
| 2026-05-06 01:43 | 2.11717 | 110.34558 | 26316 ft | 371 kts | 86° |
| 2026-05-06 01:43 | 2.11893 | 110.37088 | 25937 ft | 369 kts | 86° |
| 2026-05-06 01:43 | 2.12071 | 110.39649 | 25541 ft | 368 kts | 86° |
| 2026-05-06 01:43 | 2.12248 | 110.42203 | 25154 ft | 369 kts | 86° |
| 2026-05-06 01:44 | 2.12426 | 110.44760 | 24750 ft | 368 kts | 86° |
| 2026-05-06 01:44 | 2.12603 | 110.47308 | 24369 ft | 367 kts | 86° |
| 2026-05-06 01:44 | 2.12779 | 110.49850 | 23976 ft | 366 kts | 86° |
| 2026-05-06 01:44 | 2.12955 | 110.52381 | 23591 ft | 364 kts | 86° |
| 2026-05-06 01:45 | 2.13130 | 110.54901 | 23153 ft | 363 kts | 86° |
| 2026-05-06 01:45 | 2.13302 | 110.57380 | 22756 ft | 361 kts | 86° |
| 2026-05-06 01:45 | 2.13475 | 110.59872 | 22366 ft | 358 kts | 86° |
| 2026-05-06 01:45 | 2.13647 | 110.62349 | 21982 ft | 356 kts | 86° |
| 2026-05-06 01:46 | 2.13817 | 110.64804 | 21605 ft | 353 kts | 86° |
| 2026-05-06 01:46 | 2.13986 | 110.67245 | 21232 ft | 350 kts | 86° |
| 2026-05-06 01:46 | 2.14154 | 110.69664 | 20867 ft | 348 kts | 86° |
| 2026-05-06 01:46 | 2.14321 | 110.72072 | 20512 ft | 346 kts | 86° |
| 2026-05-06 01:47 | 2.14487 | 110.74462 | 20148 ft | 343 kts | 86° |
| 2026-05-06 01:47 | 2.14649 | 110.76802 | 19795 ft | 341 kts | 86° |
| 2026-05-06 01:47 | 2.14812 | 110.79158 | 19436 ft | 339 kts | 86° |
| 2026-05-06 01:47 | 2.14975 | 110.81508 | 19061 ft | 338 kts | 86° |
| 2026-05-06 01:48 | 2.15137 | 110.83853 | 18699 ft | 337 kts | 86° |
| 2026-05-06 01:48 | 2.15298 | 110.86181 | 18332 ft | 336 kts | 86° |
| 2026-05-06 01:48 | 2.15459 | 110.88508 | 17939 ft | 335 kts | 86° |
| 2026-05-06 01:48 | 2.15619 | 110.90822 | 17557 ft | 332 kts | 86° |
| 2026-05-06 01:49 | 2.15778 | 110.93117 | 17189 ft | 330 kts | 86° |
| 2026-05-06 01:49 | 2.15936 | 110.95400 | 16829 ft | 328 kts | 86° |
| 2026-05-06 01:49 | 2.16090 | 110.97629 | 16480 ft | 325 kts | 86° |
| 2026-05-06 01:49 | 2.16246 | 110.99880 | 16130 ft | 323 kts | 86° |
| 2026-05-06 01:50 | 2.16400 | 111.02112 | 15788 ft | 321 kts | 86° |
| 2026-05-06 01:50 | 2.16553 | 111.04322 | 15447 ft | 319 kts | 86° |
| 2026-05-06 01:50 | 2.16706 | 111.06538 | 15104 ft | 317 kts | 86° |
| 2026-05-06 01:50 | 2.16857 | 111.08733 | 14760 ft | 316 kts | 86° |
| 2026-05-06 01:51 | 2.17008 | 111.10915 | 14412 ft | 315 kts | 86° |
| 2026-05-06 01:51 | 2.17158 | 111.13095 | 14073 ft | 314 kts | 86° |
| 2026-05-06 01:51 | 2.17308 | 111.15264 | 13719 ft | 313 kts | 86° |
| 2026-05-06 01:51 | 2.17456 | 111.17403 | 13354 ft | 311 kts | 86° |
| 2026-05-06 01:52 | 2.17604 | 111.19552 | 12995 ft | 309 kts | 86° |
| 2026-05-06 01:52 | 2.17752 | 111.21693 | 12643 ft | 307 kts | 86° |
| 2026-05-06 01:52 | 2.17913 | 111.23811 | 12316 ft | 305 kts | 85° |
| 2026-05-06 01:52 | 2.18103 | 111.25923 | 11972 ft | 303 kts | 85° |
| 2026-05-06 01:53 | 2.18295 | 111.28013 | 11635 ft | 302 kts | 85° |
| 2026-05-06 01:53 | 2.18484 | 111.30097 | 11304 ft | 300 kts | 85° |
| 2026-05-06 01:53 | 2.18670 | 111.32174 | 10973 ft | 299 kts | 85° |
| 2026-05-06 01:53 | 2.18853 | 111.34237 | 10647 ft | 297 kts | 85° |
| 2026-05-06 01:54 | 2.19037 | 111.36291 | 10324 ft | 296 kts | 85° |
| 2026-05-06 01:54 | 2.19215 | 111.38288 | 10163 ft | 289 kts | 85° |
| 2026-05-06 01:54 | 2.19391 | 111.40265 | 9988 ft | 283 kts | 85° |
| 2026-05-06 01:54 | 2.19565 | 111.42221 | 9683 ft | 282 kts | 85° |
| 2026-05-06 01:55 | 2.19739 | 111.44164 | 9374 ft | 280 kts | 85° |
| 2026-05-06 01:55 | 2.19911 | 111.46097 | 9071 ft | 279 kts | 85° |
| 2026-05-06 01:55 | 2.20083 | 111.48025 | 8773 ft | 277 kts | 85° |
| 2026-05-06 01:55 | 2.20256 | 111.49939 | 8469 ft | 276 kts | 84° |
| 2026-05-06 01:56 | 2.20753 | 111.51775 | 8174 ft | 275 kts | 66° |
| 2026-05-06 01:56 | 2.21565 | 111.53496 | 7894 ft | 273 kts | 65° |
| 2026-05-06 01:56 | 2.22378 | 111.55182 | 7611 ft | 272 kts | 65° |
| 2026-05-06 01:56 | 2.23194 | 111.56886 | 7318 ft | 271 kts | 65° |
| 2026-05-06 01:57 | 2.24001 | 111.58586 | 7030 ft | 270 kts | 65° |
| 2026-05-06 01:57 | 2.24801 | 111.60283 | 6740 ft | 270 kts | 66° |
| 2026-05-06 01:57 | 2.25596 | 111.61982 | 6449 ft | 270 kts | 66° |
| 2026-05-06 01:57 | 2.26388 | 111.63680 | 6146 ft | 269 kts | 66° |
| 2026-05-06 01:58 | 2.27179 | 111.65378 | 5848 ft | 269 kts | 66° |
| 2026-05-06 01:58 | 2.27955 | 111.67047 | 5555 ft | 268 kts | 66° |
| 2026-05-06 01:58 | 2.28739 | 111.68736 | 5264 ft | 267 kts | 66° |
| 2026-05-06 01:58 | 2.29519 | 111.70416 | 4979 ft | 267 kts | 66° |
| 2026-05-06 01:59 | 2.30296 | 111.72092 | 4788 ft | 262 kts | 66° |
| 2026-05-06 01:59 | 2.31052 | 111.73719 | 4670 ft | 255 kts | 66° |
| 2026-05-06 01:59 | 2.31786 | 111.75302 | 4527 ft | 247 kts | 66° |
| 2026-05-06 01:59 | 2.32500 | 111.76838 | 4419 ft | 240 kts | 66° |
| 2026-05-06 02:00 | 2.33429 | 111.78184 | 4296 ft | 234 kts | 42° |
| 2026-05-06 02:00 | 2.34670 | 111.79184 | 4224 ft | 225 kts | 40° |
| 2026-05-06 02:00 | 2.35861 | 111.80157 | 4036 ft | 224 kts | 40° |
| 2026-05-06 02:00 | 2.37039 | 111.81129 | 3849 ft | 218 kts | 40° |
| 2026-05-06 02:01 | 2.38118 | 111.82159 | 3577 ft | 213 kts | 59° |
| 2026-05-06 02:01 | 2.38388 | 111.83524 | 3418 ft | 198 kts | 105° |
| 2026-05-06 02:01 | 2.37733 | 111.84679 | 3238 ft | 188 kts | 129° |
| 2026-05-06 02:01 | 2.36937 | 111.85708 | 2984 ft | 186 kts | 129° |
| 2026-05-06 02:02 | 2.36126 | 111.86706 | 2733 ft | 183 kts | 130° |
| 2026-05-06 02:02 | 2.35315 | 111.87678 | 2499 ft | 181 kts | 130° |
| 2026-05-06 02:02 | 2.34519 | 111.88627 | 2265 ft | 175 kts | 130° |
| 2026-05-06 02:02 | 2.33768 | 111.89521 | 2059 ft | 164 kts | 130° |
| 2026-05-06 02:03 | 2.33036 | 111.90393 | 1870 ft | 157 kts | 130° |
| 2026-05-06 02:03 | 2.32353 | 111.91206 | 1650 ft | 154 kts | 130° |
| 2026-05-06 02:03 | 2.31674 | 111.92015 | 1446 ft | 150 kts | 130° |
| 2026-05-06 02:03 | 2.31008 | 111.92809 | 1260 ft | 149 kts | 130° |
| 2026-05-06 02:04 | 2.30337 | 111.93609 | 1072 ft | 151 kts | 130° |
| 2026-05-06 02:04 | 2.29660 | 111.94416 | 893 ft | 153 kts | 129° |
| 2026-05-06 02:04 | 2.28970 | 111.95237 | 705 ft | 154 kts | 129° |
| 2026-05-06 02:04 | 2.28284 | 111.96055 | 510 ft | 153 kts | 130° |
| 2026-05-06 02:05 | 2.27601 | 111.96868 | 316 ft | 152 kts | 130° |
| 2026-05-06 02:05 | 2.26934 | 111.97666 | 123 ft | 151 kts | 129° |
| 2026-05-06 02:05 | 2.26302 | 111.98413 | 101 ft | 125 kts | 129° |
| 2026-05-06 02:05 | 2.25890 | 111.98898 | 99 ft | 33 kts | 130° |
| 2026-05-06 02:06 | 2.25796 | 111.98908 | 99 ft | 8 kts | 221° |
| 2026-05-06 02:06 | 2.25759 | 111.98876 | 99 ft | 5 kts | 219° |
| 2026-05-06 02:06 | 2.25745 | 111.98865 | 100 ft | 2 kts | 219° |
| 2026-05-06 02:06 | 2.25735 | 111.98856 | 100 ft | 2 kts | 219° |
| 2026-05-06 02:07 | 2.25733 | 111.98855 | 100 ft | 0 kts | 219° |
| 2026-05-06 02:07 | 2.25724 | 111.98845 | 100 ft | 5 kts | 232° |
| 2026-05-06 02:07 | 2.25729 | 111.98800 | 100 ft | 8 kts | 299° |
| 2026-05-06 02:07 | 2.25743 | 111.98760 | 100 ft | 5 kts | 252° |
| 2026-05-06 02:08 | 2.25719 | 111.98732 | 99 ft | 5 kts | 217° |
| 2026-05-06 02:08 | 2.25696 | 111.98722 | 100 ft | 2 kts | 197° |
| 2026-05-06 02:08 | 2.25682 | 111.98718 | 100 ft | 2 kts | 195° |
| 2026-05-06 02:08 | 2.25676 | 111.98716 | 99 ft | 0 kts | 196° |
| 2026-05-06 02:09 | 2.25675 | 111.98716 | 99 ft | 0 kts | 196° |